Time;durP1;ratioP1;P1;durP2;ratioP2;P2;SDS_P1;SDS_P2;PMS_P1;PMS_P2;Temp;Humidity;BMP_temperature;BMP_pressure;BME280_temperature;BME280_humidity;BME280_pressure;Samples;Min_cycle;Max_cycle;Signal;HPM_P1;HPM_P2
2022/12/29 00:00:12;;;;;;;2.83;2.13;;;3.00;99.90;;;;;;6155840;23;20205;-76
2022/12/29 00:02:41;;;;;;;4.27;2.23;;;3.00;99.90;;;;;;6156615;23;20166;-75
2022/12/29 00:05:09;;;;;;;3.63;2.17;;;2.90;99.90;;;;;;6156064;23;20162;-77
2022/12/29 00:07:37;;;;;;;2.63;2.07;;;3.00;99.90;;;;;;6156310;23;20221;-76
2022/12/29 00:10:07;;;;;;;3.30;2.37;;;3.00;99.90;;;;;;6156031;23;20184;-75
2022/12/29 00:15:37;;;;;;;3.00;2.17;;;2.90;99.90;;;;;;6156206;23;20173;-76
2022/12/29 00:18:07;;;;;;;2.67;1.90;;;3.00;99.90;;;;;;6159648;23;20248;-77
2022/12/29 00:44:04;;;;;;;3.00;2.20;;;3.30;99.90;;;;;;6154089;23;20681;-77
2022/12/29 00:45:42;;;;;;;2.87;2.03;;;3.40;99.90;;;;;;6154483;23;20204;-76
2022/12/29 00:48:13;;;;;;;2.07;1.87;;;3.50;99.90;;;;;;6155700;23;20208;-76
2022/12/29 00:50:40;;;;;;;2.10;1.90;;;3.50;99.90;;;;;;6156079;23;20241;-76
2022/12/29 00:53:08;;;;;;;2.07;1.80;;;3.50;99.90;;;;;;6155755;23;20213;-77
2022/12/29 00:55:38;;;;;;;3.43;2.07;;;3.50;99.90;;;;;;6156411;23;20252;-77
2022/12/29 00:58:06;;;;;;;2.40;1.80;;;3.50;99.90;;;;;;6155600;23;20221;-76
2022/12/29 01:00:37;;;;;;;3.13;2.23;;;3.50;99.90;;;;;;6156018;23;20217;-75
2022/12/29 01:03:05;;;;;;;2.47;1.90;;;3.50;99.90;;;;;;6156118;23;20511;-76
2022/12/29 01:05:38;;;;;;;2.30;1.90;;;3.50;99.90;;;;;;6156463;23;20272;-76
2022/12/29 01:08:08;;;;;;;2.50;1.87;;;3.50;99.90;;;;;;6156852;23;20209;-77
2022/12/29 01:10:35;;;;;;;2.43;1.90;;;3.70;99.90;;;;;;6156631;23;20189;-77
2022/12/29 01:13:04;;;;;;;2.50;1.80;;;3.60;99.90;;;;;;6156758;23;20190;-76
2022/12/29 01:15:32;;;;;;;3.20;1.87;;;3.60;99.90;;;;;;6157337;23;20767;-76
2022/12/29 01:18:00;;;;;;;2.13;1.70;;;3.60;99.90;;;;;;6158229;23;20244;-75
2022/12/29 01:20:29;;;;;;;2.27;1.80;;;3.60;99.90;;;;;;6156915;23;20268;-76
2022/12/29 01:22:58;;;;;;;2.17;1.70;;;3.50;99.90;;;;;;6156547;23;20252;-76
2022/12/29 01:25:28;;;;;;;2.93;1.77;;;3.50;99.90;;;;;;6156771;23;20187;-79
2022/12/29 01:27:59;;;;;;;1.90;1.50;;;3.50;99.90;;;;;;6157415;23;20182;-77
2022/12/29 01:30:27;;;;;;;1.90;1.70;;;3.50;99.90;;;;;;6157881;23;20184;-77
2022/12/29 01:32:56;;;;;;;3.30;1.70;;;3.50;99.90;;;;;;6158798;23;20241;-78
2022/12/29 01:35:24;;;;;;;1.70;1.50;;;3.60;99.90;;;;;;6158392;23;20687;-78
2022/12/29 01:37:52;;;;;;;2.97;1.70;;;3.50;99.90;;;;;;6157104;23;20217;-75
2022/12/29 01:40:22;;;;;;;2.33;1.60;;;3.60;99.90;;;;;;6159615;23;20213;-77
2022/12/29 01:42:50;;;;;;;2.90;1.83;;;3.50;99.90;;;;;;6157592;23;20257;-77
2022/12/29 01:45:19;;;;;;;3.13;1.93;;;3.40;99.90;;;;;;6156617;23;20282;-77
2022/12/29 01:47:52;;;;;;;1.93;1.70;;;3.40;99.90;;;;;;6157198;23;20673;-77
2022/12/29 01:50:26;;;;;;;2.57;1.70;;;3.40;99.90;;;;;;6156440;23;20202;-76
2022/12/29 01:52:57;;;;;;;2.27;1.80;;;3.50;99.90;;;;;;6157488;23;20263;-78
2022/12/29 01:55:29;;;;;;;2.00;1.60;;;3.50;99.90;;;;;;6157219;23;20697;-77
2022/12/29 01:58:02;;;;;;;2.97;1.70;;;3.40;99.90;;;;;;6157636;23;20241;-77
2022/12/29 02:00:30;;;;;;;2.30;1.80;;;3.60;99.90;;;;;;6157031;23;20163;-78
2022/12/29 02:02:59;;;;;;;2.13;1.73;;;3.50;99.90;;;;;;6156952;23;20177;-76
2022/12/29 02:05:34;;;;;;;2.03;1.80;;;3.40;99.90;;;;;;6155262;23;20202;-76
2022/12/29 02:08:03;;;;;;;2.23;1.60;;;3.40;99.90;;;;;;6156954;23;20248;-77
2022/12/29 02:10:35;;;;;;;2.40;1.80;;;3.40;99.90;;;;;;6156649;23;20200;-77
2022/12/29 02:13:04;;;;;;;1.83;1.70;;;3.40;99.90;;;;;;6156340;23;20181;-76
2022/12/29 02:15:40;;;;;;;1.83;1.60;;;3.40;99.90;;;;;;6157670;23;20480;-76
2022/12/29 02:18:23;;;;;;;2.23;1.80;;;3.30;99.90;;;;;;6158834;23;20640;-77
2022/12/29 02:21:20;;;;;;;1.60;1.50;;;3.40;99.90;;;;;;6159707;23;20181;-76
2022/12/29 02:24:25;;;;;;;1.73;1.60;;;3.20;99.90;;;;;;6158908;23;20197;-76
2022/12/29 02:27:26;;;;;;;2.10;1.70;;;3.20;99.90;;;;;;6158546;23;20260;-77
2022/12/29 02:30:09;;;;;;;2.67;1.77;;;3.20;99.90;;;;;;6144666;23;20261;-76
2022/12/29 02:32:50;;;;;;;2.47;1.83;;;3.20;99.90;;;;;;6157869;23;20452;-76
2022/12/29 02:35:27;;;;;;;2.10;1.60;;;3.30;99.90;;;;;;6157454;23;20170;-76
2022/12/29 02:38:04;;;;;;;2.70;1.80;;;3.40;99.90;;;;;;6157017;23;20698;-76
2022/12/29 02:40:38;;;;;;;2.30;1.80;;;3.50;99.90;;;;;;6159434;23;20172;-77
2022/12/29 02:43:18;;;;;;;1.87;1.53;;;3.50;99.90;;;;;;6158192;23;20326;-76
2022/12/29 02:45:52;;;;;;;2.73;1.77;;;3.50;99.90;;;;;;6158289;23;20730;-76
2022/12/29 02:48:28;;;;;;;1.90;1.70;;;3.50;99.90;;;;;;6157751;23;20502;-77
2022/12/29 02:51:01;;;;;;;2.93;1.80;;;3.50;99.90;;;;;;6157876;23;20177;-76
2022/12/29 02:56:16;;;;;;;2.27;1.67;;;3.50;99.90;;;;;;6159009;23;20170;-77
2022/12/29 02:58:45;;;;;;;3.10;1.90;;;3.60;99.90;;;;;;6158903;23;20213;-76
2022/12/29 03:01:30;;;;;;;2.20;1.80;;;3.60;99.90;;;;;;6160121;23;20205;-76
2022/12/29 03:04:17;;;;;;;2.87;2.00;;;3.60;99.90;;;;;;6159052;23;20197;-77
2022/12/29 03:06:55;;;;;;;2.33;1.90;;;3.60;99.90;;;;;;6159141;23;20200;-75
2022/12/29 03:09:36;;;;;;;2.77;1.93;;;3.60;99.90;;;;;;6158523;23;20185;-76
2022/12/29 03:12:15;;;;;;;2.70;1.97;;;3.50;99.90;;;;;;6158797;23;20182;-76
2022/12/29 03:17:56;;;;;;;2.63;1.77;;;3.50;99.90;;;;;;6158803;23;20234;-77
2022/12/29 03:20:33;;;;;;;2.93;1.67;;;3.40;99.90;;;;;;6158790;23;20181;-76
2022/12/29 03:23:04;;;;;;;1.90;1.70;;;3.40;99.90;;;;;;6157977;23;20241;-76
2022/12/29 03:25:41;;;;;;;2.40;1.50;;;3.40;99.90;;;;;;6157985;23;20290;-76
2022/12/29 03:28:13;;;;;;;2.03;1.60;;;3.30;99.90;;;;;;6159097;23;20203;-75
2022/12/29 03:30:46;;;;;;;1.87;1.67;;;3.30;99.90;;;;;;6157467;23;20687;-76
2022/12/29 03:33:18;;;;;;;2.73;1.50;;;3.30;99.90;;;;;;6157844;23;20170;-76
2022/12/29 03:35:52;;;;;;;3.50;1.70;;;3.40;99.90;;;;;;6157241;23;20170;-77
2022/12/29 03:38:24;;;;;;;2.20;1.53;;;3.40;99.90;;;;;;6157199;23;20181;-77
2022/12/29 03:40:56;;;;;;;2.13;1.77;;;3.40;99.90;;;;;;6157917;23;20185;-77
2022/12/29 03:43:25;;;;;;;2.80;2.00;;;3.40;99.90;;;;;;6156729;23;20602;-77
2022/12/29 03:45:53;;;;;;;2.50;1.80;;;3.50;99.90;;;;;;6157133;23;20799;-77
2022/12/29 03:48:21;;;;;;;2.80;1.60;;;3.60;99.90;;;;;;6155881;23;20182;-76
2022/12/29 03:50:51;;;;;;;2.40;1.90;;;3.50;99.90;;;;;;6157667;23;20228;-77
2022/12/29 03:53:22;;;;;;;2.33;1.90;;;3.70;99.90;;;;;;6156264;23;20614;-77
2022/12/29 03:55:51;;;;;;;2.33;1.70;;;3.70;99.90;;;;;;6157058;23;20178;-76
2022/12/29 03:58:19;;;;;;;2.40;1.70;;;3.60;99.90;;;;;;6156986;23;20177;-77
2022/12/29 04:00:49;;;;;;;2.80;1.90;;;3.80;99.90;;;;;;6157734;23;20182;-75
2022/12/29 04:03:17;;;;;;;2.30;1.80;;;3.80;99.90;;;;;;6157763;23;20264;-78
2022/12/29 04:05:46;;;;;;;3.03;1.87;;;3.90;99.90;;;;;;6156051;23;20197;-77
2022/12/29 04:08:19;;;;;;;3.03;2.10;;;3.90;99.90;;;;;;6156063;23;20177;-76
2022/12/29 04:10:48;;;;;;;3.63;2.10;;;3.90;99.90;;;;;;6157537;23;20204;-77
2022/12/29 04:13:16;;;;;;;2.50;2.00;;;3.90;99.90;;;;;;6156709;23;20263;-77
2022/12/29 04:15:45;;;;;;;2.03;1.80;;;4.00;99.90;;;;;;6156395;23;20174;-78
2022/12/29 04:18:15;;;;;;;2.73;2.00;;;4.20;99.90;;;;;;6156452;23;20609;-76
2022/12/29 04:21:00;;;;;;;2.50;2.00;;;4.10;99.90;;;;;;6156705;23;20192;-76
2022/12/29 04:23:34;;;;;;;2.10;1.80;;;4.20;99.90;;;;;;6155926;23;20192;-75
2022/12/29 04:26:03;;;;;;;2.43;2.07;;;4.20;99.90;;;;;;6155949;23;20519;-75
2022/12/29 04:28:31;;;;;;;2.30;2.10;;;4.30;99.90;;;;;;6156129;23;20229;-77
2022/12/29 04:30:59;;;;;;;2.70;2.03;;;4.30;99.90;;;;;;6154992;23;20208;-77
2022/12/29 04:33:28;;;;;;;3.30;2.00;;;4.30;99.90;;;;;;6156576;23;20181;-76
2022/12/29 04:35:56;;;;;;;3.03;2.17;;;4.30;99.90;;;;;;6157422;23;20180;-76
2022/12/29 04:38:25;;;;;;;2.60;1.90;;;4.30;99.90;;;;;;6156575;23;20182;-77
2022/12/29 04:40:55;;;;;;;2.63;2.00;;;4.30;99.90;;;;;;6156154;23;20260;-77
2022/12/29 04:43:23;;;;;;;3.73;2.00;;;4.40;99.90;;;;;;6157575;23;20273;-78
2022/12/29 04:45:51;;;;;;;2.10;1.87;;;4.40;99.90;;;;;;6156676;23;20221;-77
2022/12/29 04:48:19;;;;;;;1.97;1.67;;;4.50;99.90;;;;;;6156636;23;20178;-75
2022/12/29 04:50:49;;;;;;;2.13;1.70;;;4.60;99.90;;;;;;6156388;23;20199;-77
2022/12/29 04:53:18;;;;;;;1.87;1.67;;;4.70;99.90;;;;;;6156767;23;20181;-77
2022/12/29 04:55:51;;;;;;;3.13;1.60;;;4.70;99.90;;;;;;6157191;23;20176;-78
2022/12/29 04:58:21;;;;;;;2.83;1.83;;;4.70;99.90;;;;;;6157021;23;20186;-77
2022/12/29 05:00:51;;;;;;;2.57;1.97;;;4.80;99.90;;;;;;6157230;23;20178;-77
2022/12/29 05:03:19;;;;;;;2.10;1.90;;;4.80;99.90;;;;;;6156333;23;20264;-77
2022/12/29 05:05:47;;;;;;;2.70;1.80;;;4.90;99.90;;;;;;6155715;23;20592;-76
2022/12/29 05:08:15;;;;;;;2.97;1.73;;;4.80;99.90;;;;;;6157181;23;20197;-77
2022/12/29 05:10:46;;;;;;;1.90;1.70;;;4.90;99.90;;;;;;6163187;23;20169;-78
2022/12/29 05:13:14;;;;;;;2.50;1.77;;;5.00;99.90;;;;;;6180151;23;20227;-77
2022/12/29 05:15:50;;;;;;;3.13;1.97;;;5.00;99.90;;;;;;6181127;23;20228;-76
2022/12/29 05:18:19;;;;;;;4.93;1.87;;;5.00;99.90;;;;;;6173940;23;20249;-76
2022/12/29 05:20:48;;;;;;;5.00;1.80;;;5.00;99.90;;;;;;6157980;23;20224;-76
2022/12/29 05:23:16;;;;;;;2.90;1.80;;;5.00;99.90;;;;;;6157014;23;20242;-75
2022/12/29 05:25:48;;;;;;;3.30;1.90;;;5.00;99.90;;;;;;6158564;23;20233;-77
2022/12/29 05:28:16;;;;;;;2.40;1.70;;;5.00;99.90;;;;;;6158825;23;20197;-77
2022/12/29 05:30:48;;;;;;;1.90;1.70;;;5.10;99.90;;;;;;6156459;23;20645;-77
2022/12/29 05:33:18;;;;;;;1.97;1.77;;;5.10;99.90;;;;;;6157192;23;20177;-76
2022/12/29 05:35:46;;;;;;;2.70;1.73;;;5.10;99.90;;;;;;6157819;23;20185;-78
2022/12/29 05:38:15;;;;;;;2.30;1.70;;;5.10;99.90;;;;;;6158013;23;20185;-78
2022/12/29 05:40:45;;;;;;;2.30;1.70;;;5.20;99.90;;;;;;6157243;23;20231;-76
2022/12/29 05:43:13;;;;;;;4.17;2.00;;;5.30;99.90;;;;;;6158818;23;20241;-78
2022/12/29 05:45:42;;;;;;;2.90;2.03;;;5.30;99.90;;;;;;6156999;23;20657;-78
2022/12/29 05:48:11;;;;;;;2.20;1.80;;;5.30;99.90;;;;;;6161640;23;20551;-77
2022/12/29 05:50:41;;;;;;;2.07;1.50;;;5.30;99.90;;;;;;6175354;23;20606;-77
2022/12/29 05:53:09;;;;;;;2.20;1.60;;;5.30;99.90;;;;;;6173572;23;20224;-77
2022/12/29 05:55:40;;;;;;;3.70;1.63;;;5.30;99.90;;;;;;6161818;23;20192;-77
2022/12/29 05:58:19;;;;;;;1.80;1.60;;;5.30;99.90;;;;;;6158323;23;20201;-76
2022/12/29 06:00:47;;;;;;;2.83;1.70;;;5.30;99.90;;;;;;6158067;23;20260;-76
2022/12/29 06:03:15;;;;;;;2.77;1.90;;;5.30;99.90;;;;;;6157346;23;20268;-76
2022/12/29 06:05:47;;;;;;;5.40;2.53;;;5.30;99.90;;;;;;6157657;23;20206;-77
2022/12/29 06:08:15;;;;;;;2.10;1.90;;;5.30;99.90;;;;;;6156560;23;20213;-76
2022/12/29 06:10:43;;;;;;;1.93;1.70;;;5.30;99.90;;;;;;6157215;23;20189;-78
2022/12/29 06:13:12;;;;;;;1.60;1.40;;;5.30;99.90;;;;;;6156988;23;20181;-77
2022/12/29 06:15:41;;;;;;;1.90;1.60;;;5.50;99.90;;;;;;6156954;23;20184;-77
2022/12/29 06:18:09;;;;;;;2.17;1.50;;;5.50;99.90;;;;;;6155851;23;20288;-78
2022/12/29 06:20:49;;;;;;;2.20;1.63;;;5.50;99.90;;;;;;6158063;23;20224;-76
2022/12/29 06:23:18;;;;;;;2.77;1.73;;;5.40;99.90;;;;;;6158606;23;20217;-77
2022/12/29 06:25:48;;;;;;;1.90;1.53;;;5.50;99.90;;;;;;6159076;23;20184;-77
2022/12/29 06:28:17;;;;;;;2.03;1.60;;;5.50;99.90;;;;;;6158170;23;20217;-77
2022/12/29 06:30:49;;;;;;;2.57;1.77;;;5.40;99.90;;;;;;6158253;23;20189;-73
2022/12/29 06:33:17;;;;;;;3.23;1.70;;;5.50;99.90;;;;;;6157232;23;20197;-75
2022/12/29 06:35:46;;;;;;;2.57;1.57;;;5.40;99.90;;;;;;6156904;23;20182;-75
2022/12/29 06:38:15;;;;;;;2.10;1.70;;;5.40;99.90;;;;;;6156521;23;20269;-75
2022/12/29 06:40:44;;;;;;;2.50;1.83;;;5.40;99.90;;;;;;6156667;23;20189;-77
2022/12/29 06:43:13;;;;;;;2.40;1.90;;;5.40;99.90;;;;;;6156534;23;20181;-77
2022/12/29 06:45:41;;;;;;;2.07;1.53;;;5.50;99.90;;;;;;6156754;23;20181;-75
2022/12/29 06:48:12;;;;;;;3.90;2.23;;;5.50;99.90;;;;;;6157150;23;20229;-77
2022/12/29 06:50:41;;;;;;;3.83;2.20;;;5.60;99.90;;;;;;6157061;23;20178;-76
2022/12/29 06:53:10;;;;;;;3.37;2.00;;;5.60;99.90;;;;;;6156088;23;20220;-77
2022/12/29 06:55:38;;;;;;;2.67;1.80;;;5.60;99.90;;;;;;6156588;23;20188;-76
2022/12/29 06:58:06;;;;;;;3.00;1.70;;;5.60;99.90;;;;;;6156397;23;20174;-75
2022/12/29 07:00:38;;;;;;;3.57;1.90;;;5.60;99.90;;;;;;6155406;23;20224;-76
2022/12/29 07:03:09;;;;;;;5.93;1.73;;;5.60;99.90;;;;;;6156154;23;20565;-78
2022/12/29 07:05:37;;;;;;;2.30;1.70;;;5.60;99.90;;;;;;6156567;23;20200;-76
2022/12/29 07:08:06;;;;;;;2.10;1.50;;;5.60;99.90;;;;;;6156416;23;20239;-75
2022/12/29 07:10:35;;;;;;;2.50;1.53;;;5.70;99.90;;;;;;6156309;23;20185;-75
2022/12/29 07:13:04;;;;;;;2.07;1.43;;;5.80;99.90;;;;;;6156060;23;20190;-76
2022/12/29 07:15:32;;;;;;;4.00;1.93;;;5.80;99.90;;;;;;6155922;23;20265;-77
2022/12/29 07:18:00;;;;;;;2.73;1.60;;;5.70;99.90;;;;;;6155583;23;20251;-76
2022/12/29 07:20:28;;;;;;;4.77;1.70;;;5.70;99.90;;;;;;6156229;23;20209;-78
2022/12/29 07:22:56;;;;;;;2.43;1.90;;;5.60;99.90;;;;;;6155443;23;20264;-77
2022/12/29 07:25:30;;;;;;;2.40;1.80;;;5.50;99.90;;;;;;6155979;23;20585;-76
2022/12/29 07:27:59;;;;;;;3.33;1.90;;;5.40;99.90;;;;;;6155490;23;20208;-77
2022/12/29 07:30:27;;;;;;;2.67;1.73;;;5.40;99.90;;;;;;6156136;23;20312;-77
2022/12/29 07:32:55;;;;;;;1.90;1.70;;;5.40;99.90;;;;;;6156428;23;20189;-77
2022/12/29 07:35:24;;;;;;;2.23;1.90;;;5.30;99.90;;;;;;6156403;23;20685;-77
2022/12/29 07:37:53;;;;;;;2.20;1.93;;;5.20;99.90;;;;;;6156172;23;20178;-77
2022/12/29 07:40:21;;;;;;;3.33;1.60;;;5.20;99.90;;;;;;6156916;23;20507;-77
2022/12/29 07:42:49;;;;;;;3.40;2.00;;;5.30;99.90;;;;;;6155839;23;20229;-77
2022/12/29 07:45:19;;;;;;;2.33;1.70;;;5.30;99.90;;;;;;6156034;23;20221;-77
2022/12/29 07:47:50;;;;;;;2.97;2.00;;;5.50;99.90;;;;;;6156001;23;20224;-77
2022/12/29 07:50:18;;;;;;;2.43;1.63;;;5.70;99.90;;;;;;6156790;23;20192;-77
2022/12/29 07:52:47;;;;;;;2.17;1.63;;;6.20;99.90;;;;;;6155991;23;20728;-77
2022/12/29 07:55:16;;;;;;;1.93;1.67;;;7.40;99.90;;;;;;6155732;23;20185;-76
2022/12/29 07:57:44;;;;;;;2.00;1.80;;;7.60;99.90;;;;;;6156635;23;20260;-76
2022/12/29 08:00:14;;;;;;;2.87;1.80;;;7.10;99.90;;;;;;6156067;23;20691;-76
2022/12/29 08:02:47;;;;;;;3.23;1.77;;;6.80;99.90;;;;;;6155605;23;20201;-77
2022/12/29 08:05:15;;;;;;;2.90;1.80;;;6.60;99.90;;;;;;6156006;23;20236;-76
2022/12/29 08:07:44;;;;;;;1.87;1.60;;;6.50;99.90;;;;;;6156115;23;20662;-76
2022/12/29 08:10:12;;;;;;;3.37;1.80;;;6.50;99.90;;;;;;6153483;23;20196;-77
2022/12/29 08:12:41;;;;;;;2.30;1.70;;;6.60;99.90;;;;;;6153965;23;20188;-78
2022/12/29 08:15:12;;;;;;;2.13;1.60;;;6.60;99.90;;;;;;6155978;23;20606;-77
2022/12/29 08:17:42;;;;;;;2.40;1.67;;;6.50;99.90;;;;;;6156031;23;20189;-77
2022/12/29 08:20:12;;;;;;;2.00;1.60;;;6.50;99.90;;;;;;6155055;23;20212;-76
2022/12/29 08:22:41;;;;;;;3.00;1.50;;;6.70;99.90;;;;;;6156067;23;20181;-76
2022/12/29 08:25:10;;;;;;;2.60;1.80;;;6.90;99.90;;;;;;6155978;23;20200;-76
2022/12/29 08:27:38;;;;;;;2.20;1.47;;;7.10;99.90;;;;;;6155836;23;20228;-76
2022/12/29 08:30:07;;;;;;;2.30;1.60;;;7.10;99.90;;;;;;6155810;23;20220;-76
2022/12/29 08:32:35;;;;;;;3.80;1.87;;;7.50;99.90;;;;;;6155674;23;20182;-78
2022/12/29 08:35:04;;;;;;;1.60;1.50;;;7.70;99.90;;;;;;6156634;23;20618;-77
2022/12/29 08:37:35;;;;;;;2.10;1.53;;;7.90;99.90;;;;;;6156102;23;20186;-75
2022/12/29 08:40:03;;;;;;;1.53;1.43;;;8.20;99.90;;;;;;6156462;23;20162;-77
2022/12/29 08:42:32;;;;;;;2.10;1.67;;;8.60;99.90;;;;;;6155287;23;20584;-77
2022/12/29 08:45:00;;;;;;;1.83;1.53;;;8.90;99.90;;;;;;6155315;23;20216;-78
2022/12/29 08:47:29;;;;;;;3.83;1.70;;;9.40;99.90;;;;;;6156420;23;20205;-77
2022/12/29 08:49:57;;;;;;;2.70;1.60;;;9.70;99.90;;;;;;6156351;23;20689;-77
2022/12/29 08:52:25;;;;;;;1.60;1.50;;;9.80;99.90;;;;;;6156893;23;20522;-77
2022/12/29 08:54:54;;;;;;;2.03;1.60;;;9.90;99.90;;;;;;6154639;23;20573;-79
2022/12/29 08:57:22;;;;;;;1.50;1.40;;;9.70;99.90;;;;;;6155621;23;20188;-79
2022/12/29 08:59:51;;;;;;;2.47;1.70;;;9.60;99.90;;;;;;6156578;23;20634;-78
2022/12/29 09:02:19;;;;;;;2.50;1.60;;;9.40;99.90;;;;;;6154932;23;20661;-77
2022/12/29 09:04:52;;;;;;;3.10;1.67;;;9.10;99.90;;;;;;6155283;23;20621;-76
2022/12/29 09:07:20;;;;;;;3.47;1.70;;;8.80;99.90;;;;;;6154779;23;20594;-78
2022/12/29 09:09:48;;;;;;;2.53;1.53;;;8.70;99.90;;;;;;6154809;23;20185;-78
2022/12/29 09:12:18;;;;;;;3.80;1.77;;;8.70;99.90;;;;;;6154822;23;20182;-78
2022/12/29 09:14:47;;;;;;;1.73;1.63;;;8.60;99.90;;;;;;6155192;23;20178;-78
2022/12/29 09:20:02;;;;;;;2.50;1.80;;;8.70;99.90;;;;;;6168240;23;20176;-77
2022/12/29 09:22:32;;;;;;;2.40;1.60;;;8.70;99.90;;;;;;6162410;23;20285;-78
2022/12/29 09:25:00;;;;;;;4.97;1.80;;;8.80;99.90;;;;;;6155452;23;20209;-76
2022/12/29 09:27:30;;;;;;;3.27;1.80;;;8.80;99.90;;;;;;6155528;23;20633;-78
2022/12/29 09:29:59;;;;;;;2.53;1.70;;;8.90;99.90;;;;;;6152502;23;20681;-78
2022/12/29 09:32:27;;;;;;;4.43;1.60;;;9.00;99.90;;;;;;6153008;23;20551;-78
2022/12/29 09:35:00;;;;;;;1.67;1.40;;;9.00;99.90;;;;;;6154365;23;20161;-78
2022/12/29 09:37:29;;;;;;;2.03;1.57;;;9.20;99.90;;;;;;6151854;23;20187;-79
2022/12/29 09:39:57;;;;;;;3.20;1.27;;;9.30;99.90;;;;;;6153856;23;20186;-78
2022/12/29 09:42:33;;;;;;;2.30;1.37;;;9.60;99.90;;;;;;6154292;23;20193;-78
2022/12/29 09:45:13;;;;;;;1.57;1.23;;;9.70;99.90;;;;;;6153863;23;20769;-78
2022/12/29 09:47:43;;;;;;;2.80;1.23;;;9.90;99.90;;;;;;6154484;23;20181;-79
2022/12/29 09:50:20;;;;;;;1.93;1.27;;;10.10;99.90;;;;;;6154706;23;20186;-79
2022/12/29 09:52:53;;;;;;;2.63;1.70;;;10.30;98.50;;;;;;6154300;23;20166;-80
2022/12/29 09:55:24;;;;;;;4.33;1.60;;;10.60;97.80;;;;;;6155243;23;20184;-78
2022/12/29 09:57:59;;;;;;;2.27;1.60;;;10.90;97.10;;;;;;6154403;23;20178;-80
2022/12/29 10:00:41;;;;;;;2.10;1.43;;;11.10;96.60;;;;;;6156330;23;20172;-79
2022/12/29 10:03:17;;;;;;;3.43;1.40;;;11.40;94.80;;;;;;6168374;23;20192;-78
2022/12/29 10:05:51;;;;;;;2.43;1.20;;;11.60;94.50;;;;;;6167663;23;20187;-78
2022/12/29 10:08:29;;;;;;;2.03;1.40;;;11.80;93.90;;;;;;6162223;23;20288;-77
2022/12/29 10:10:59;;;;;;;2.13;1.00;;;11.70;93.40;;;;;;6155169;23;20177;-79
2022/12/29 10:13:40;;;;;;;1.30;1.20;;;11.60;92.10;;;;;;6155290;23;20205;-77
2022/12/29 10:16:14;;;;;;;2.17;1.00;;;11.50;92.00;;;;;;6156124;23;20178;-80
2022/12/29 10:19:21;;;;;;;1.17;1.07;;;11.50;92.10;;;;;;6156648;23;20244;-78
2022/12/29 10:22:05;;;;;;;2.20;1.10;;;11.40;92.00;;;;;;6155164;23;20182;-77
2022/12/29 10:24:35;;;;;;;1.73;1.20;;;11.60;91.90;;;;;;6155528;23;20256;-79
2022/12/29 10:27:04;;;;;;;1.27;1.17;;;11.40;91.50;;;;;;6158950;23;20173;-79
2022/12/29 10:29:41;;;;;;;1.57;1.20;;;11.10;92.50;;;;;;6154942;23;20765;-79
2022/12/29 10:32:23;;;;;;;2.23;1.30;;;11.10;92.00;;;;;;6156394;23;20233;-78
2022/12/29 10:34:56;;;;;;;1.93;1.27;;;11.00;92.90;;;;;;6158802;23;20212;-78
2022/12/29 10:37:33;;;;;;;1.87;1.20;;;10.80;93.00;;;;;;6159157;23;20162;-79
2022/12/29 10:40:13;;;;;;;2.50;1.50;;;10.60;93.60;;;;;;6161294;23;20629;-78
2022/12/29 10:42:46;;;;;;;1.30;1.20;;;10.50;94.10;;;;;;6158265;23;20178;-78
2022/12/29 10:45:18;;;;;;;1.33;1.20;;;10.50;94.80;;;;;;6158601;23;20253;-79
2022/12/29 10:47:54;;;;;;;3.67;1.70;;;10.50;95.50;;;;;;6160959;23;20213;-78
2022/12/29 10:50:27;;;;;;;1.47;1.30;;;10.60;95.10;;;;;;6167995;23;20181;-78
2022/12/29 10:52:59;;;;;;;1.53;1.40;;;10.70;94.40;;;;;;6159871;23;20208;-76
2022/12/29 10:55:32;;;;;;;1.63;1.53;;;10.80;95.10;;;;;;6158407;23;20184;-78
2022/12/29 10:58:04;;;;;;;3.27;1.57;;;10.70;95.00;;;;;;6161240;23;20162;-78
2022/12/29 11:00:36;;;;;;;2.70;1.47;;;10.60;95.60;;;;;;6157272;23;20622;-78
2022/12/29 11:03:45;;;;;;;2.93;1.33;;;10.70;96.10;;;;;;6160881;23;20228;-78
2022/12/29 11:06:19;;;;;;;3.40;1.37;;;10.90;96.60;;;;;;6148218;23;20189;-78
2022/12/29 11:08:56;;;;;;;2.77;1.70;;;11.20;96.00;;;;;;6162198;23;20207;-78
2022/12/29 11:11:27;;;;;;;2.67;1.60;;;11.40;95.30;;;;;;6163078;23;20505;-80
2022/12/29 11:14:03;;;;;;;2.03;1.60;;;11.50;95.30;;;;;;6159237;23;20177;-80
2022/12/29 11:16:35;;;;;;;2.00;1.60;;;11.70;95.10;;;;;;6159005;23;20188;-78
2022/12/29 11:19:04;;;;;;;3.43;1.90;;;11.80;95.20;;;;;;6164439;23;20229;-79
2022/12/29 11:21:39;;;;;;;2.93;1.70;;;12.30;95.60;;;;;;6162047;23;20209;-80
2022/12/29 11:24:21;;;;;;;2.33;1.77;;;12.70;95.00;;;;;;6158231;23;20489;-80
2022/12/29 11:26:56;;;;;;;3.40;1.70;;;13.20;94.20;;;;;;6156837;23;20615;-81
2022/12/29 11:29:27;;;;;;;4.93;1.60;;;13.30;93.20;;;;;;6159649;23;20216;-79
2022/12/29 11:31:59;;;;;;;3.43;1.67;;;13.40;93.00;;;;;;6158969;23;20201;-79
2022/12/29 11:34:32;;;;;;;3.03;1.63;;;13.70;91.90;;;;;;6161827;23;20645;-79
2022/12/29 11:37:04;;;;;;;2.80;1.50;;;13.70;92.30;;;;;;6158086;23;20537;-78
2022/12/29 11:39:37;;;;;;;2.97;1.57;;;13.20;92.20;;;;;;6158201;23;20162;-80
2022/12/29 11:42:13;;;;;;;3.57;1.53;;;13.00;93.10;;;;;;6159061;23;20721;-80
2022/12/29 11:44:46;;;;;;;2.70;1.63;;;12.80;92.70;;;;;;6162326;23;20192;-79
2022/12/29 11:47:26;;;;;;;4.67;1.50;;;12.70;92.50;;;;;;6165687;23;20201;-80
2022/12/29 11:49:57;;;;;;;2.77;1.50;;;12.50;92.20;;;;;;6163675;23;20211;-79
2022/12/29 11:52:27;;;;;;;2.97;1.50;;;12.50;91.80;;;;;;6160723;23;20186;-80
2022/12/29 11:54:57;;;;;;;1.40;1.30;;;12.30;91.60;;;;;;6158802;23;20449;-81
2022/12/29 11:57:26;;;;;;;1.43;1.30;;;12.40;92.50;;;;;;6159453;23;20178;-80
2022/12/29 11:59:55;;;;;;;2.57;1.17;;;12.50;91.20;;;;;;6164620;23;20264;-79
2022/12/29 12:02:49;;;;;;;1.27;1.17;;;12.70;91.40;;;;;;6161357;23;20181;-79
2022/12/29 12:05:23;;;;;;;1.63;1.27;;;12.70;91.70;;;;;;6164232;23;20243;-81
2022/12/29 12:07:57;;;;;;;2.23;1.43;;;12.90;90.90;;;;;;6159601;23;20195;-80
2022/12/29 12:10:32;;;;;;;1.33;1.23;;;12.70;91.50;;;;;;6160442;23;20204;-79
2022/12/29 12:13:06;;;;;;;1.80;1.30;;;12.80;91.10;;;;;;6156123;23;20189;-81
2022/12/29 12:15:40;;;;;;;2.30;1.40;;;12.90;91.30;;;;;;6156870;23;20215;-80
2022/12/29 12:18:22;;;;;;;2.73;1.50;;;13.00;91.90;;;;;;6157604;23;20185;-81
2022/12/29 12:20:55;;;;;;;3.73;1.50;;;13.30;91.90;;;;;;6161012;23;20197;-80
2022/12/29 12:23:33;;;;;;;1.40;1.20;;;13.40;91.50;;;;;;6160999;23;20177;-80
2022/12/29 12:26:11;;;;;;;1.93;1.23;;;13.50;91.50;;;;;;6157532;23;20236;-81
2022/12/29 12:28:49;;;;;;;1.00;1.00;;;13.60;91.50;;;;;;6161554;23;20180;-80
2022/12/29 12:31:36;;;;;;;2.03;1.33;;;13.80;91.20;;;;;;6187567;23;20654;-80
2022/12/29 12:34:17;;;;;;;3.03;1.30;;;13.70;90.30;;;;;;6161098;23;20189;-79
2022/12/29 12:37:01;;;;;;;1.90;1.10;;;13.70;90.70;;;;;;6155656;23;20697;-79
2022/12/29 12:39:42;;;;;;;4.43;1.40;;;13.70;89.80;;;;;;6155946;23;20197;-79
2022/12/29 12:42:24;;;;;;;3.10;1.20;;;13.70;88.50;;;;;;6157956;23;20193;-78
2022/12/29 12:45:19;;;;;;;2.93;1.20;;;13.70;88.20;;;;;;6155796;23;20177;-78
2022/12/29 12:48:02;;;;;;;1.50;1.30;;;13.50;87.20;;;;;;6157349;23;20177;-78
2022/12/29 12:50:54;;;;;;;1.47;1.20;;;13.50;88.20;;;;;;6156498;23;20264;-79
2022/12/29 12:53:45;;;;;;;2.50;1.20;;;13.50;86.60;;;;;;6156167;23;20257;-80
2022/12/29 12:56:42;;;;;;;4.53;1.23;;;13.50;87.00;;;;;;6156795;23;20620;-78
2022/12/29 12:59:20;;;;;;;2.07;0.80;;;13.30;87.30;;;;;;6155529;23;20188;-78
2022/12/29 13:01:57;;;;;;;1.70;1.23;;;13.30;88.10;;;;;;6157185;23;20244;-80
2022/12/29 13:04:47;;;;;;;1.53;0.90;;;13.40;88.40;;;;;;6157636;23;20177;-78
2022/12/29 13:07:26;;;;;;;1.60;1.10;;;13.40;88.50;;;;;;6156272;23;20253;-79
2022/12/29 13:10:30;;;;;;;2.57;1.20;;;13.20;90.20;;;;;;6155924;23;20284;-78
2022/12/29 13:13:22;;;;;;;2.30;1.20;;;13.00;90.20;;;;;;6156220;23;20200;-78
2022/12/29 13:15:56;;;;;;;1.57;1.10;;;13.00;90.50;;;;;;6155887;23;20394;-78
2022/12/29 13:18:31;;;;;;;2.20;1.20;;;12.80;91.20;;;;;;6155781;23;20197;-79
2022/12/29 13:21:08;;;;;;;2.03;1.23;;;12.80;91.30;;;;;;6155316;23;20187;-78
2022/12/29 13:23:45;;;;;;;1.53;1.03;;;12.80;91.40;;;;;;6155174;23;20192;-77
2022/12/29 13:26:19;;;;;;;2.00;1.27;;;12.70;91.90;;;;;;6156662;23;20168;-78
2022/12/29 13:28:56;;;;;;;1.40;1.30;;;12.70;92.00;;;;;;6156005;23;20174;-79
2022/12/29 13:31:39;;;;;;;2.23;1.57;;;12.70;92.30;;;;;;6155656;23;20244;-78
2022/12/29 13:34:20;;;;;;;7.33;4.17;;;12.60;92.60;;;;;;6156154;23;20207;-80
2022/12/29 13:36:54;;;;;;;4.90;3.10;;;12.60;93.70;;;;;;6155855;23;20173;-78
2022/12/29 13:39:28;;;;;;;2.20;1.60;;;12.40;94.10;;;;;;6156336;23;20213;-79
2022/12/29 13:41:58;;;;;;;1.67;1.20;;;12.40;94.40;;;;;;6156766;23;20186;-79
2022/12/29 13:44:30;;;;;;;2.40;1.20;;;12.40;95.00;;;;;;6155882;23;20237;-78
2022/12/29 13:47:15;;;;;;;3.53;1.30;;;12.30;95.50;;;;;;6155252;23;20599;-78
2022/12/29 13:49:45;;;;;;;1.50;1.33;;;12.30;96.30;;;;;;6155819;23;20165;-79
2022/12/29 13:52:20;;;;;;;1.50;1.00;;;12.20;97.30;;;;;;6156195;23;20233;-79
2022/12/29 13:55:01;;;;;;;3.40;1.17;;;12.10;97.90;;;;;;6156124;23;20603;-77